createdAt,value
2022-09-15T00:02:11.660Z,55.34
2022-09-15T00:04:38.356Z,55.45
2022-09-15T00:07:04.867Z,55.55
2022-09-15T00:09:31.425Z,55.55
2022-09-15T00:11:57.750Z,55.46
2022-09-15T00:14:24.203Z,55.24
2022-09-15T00:16:50.703Z,55.43
2022-09-15T00:19:17.052Z,55.56
2022-09-15T00:21:43.363Z,55.61
2022-09-15T00:24:10.362Z,55.37
2022-09-15T00:26:37.292Z,55.48
2022-09-15T00:29:04.871Z,55.31
2022-09-15T00:31:32.396Z,55.41
2022-09-15T00:34:02.408Z,55.23
2022-09-15T00:36:29.261Z,55.37
2022-09-15T00:38:56.522Z,55.20
2022-09-15T00:41:24.142Z,55.23
2022-09-15T00:43:55.518Z,55.25
2022-09-15T00:46:23.937Z,55.41
2022-09-15T00:49:11.447Z,55.36
2022-09-15T00:52:07.268Z,55.59
2022-09-15T00:54:46.603Z,55.57
2022-09-15T00:57:42.533Z,55.60
2022-09-15T01:00:12.868Z,55.33
2022-09-15T01:02:42.294Z,55.56
2022-09-15T01:05:11.918Z,55.57
2022-09-15T01:08:00.278Z,55.46
2022-09-15T01:10:29.296Z,55.30
2022-09-15T01:12:59.217Z,55.70
2022-09-15T01:15:47.947Z,55.61
2022-09-15T01:18:42.031Z,55.42
2022-09-15T01:21:31.600Z,55.45
2022-09-15T01:24:16.715Z,55.70
2022-09-15T01:27:09.795Z,55.29
2022-09-15T01:29:54.022Z,55.43
2022-09-15T01:32:44.964Z,55.55
2022-09-15T01:35:17.209Z,55.36
2022-09-15T01:37:50.057Z,55.55
2022-09-15T01:40:18.873Z,55.54
2022-09-15T01:42:48.503Z,55.54
2022-09-15T01:45:28.127Z,55.65
2022-09-15T01:47:58.893Z,55.27
2022-09-15T01:50:38.012Z,55.37
2022-09-15T01:53:12.941Z,55.28
2022-09-15T01:55:43.304Z,55.27
2022-09-15T01:58:09.874Z,55.47
2022-09-15T02:00:43.739Z,55.33
2022-09-15T02:03:26.007Z,55.32
2022-09-15T02:06:02.692Z,55.32
2022-09-15T02:08:38.064Z,55.25
2022-09-15T02:11:13.079Z,55.32
2022-09-15T02:13:54.053Z,55.51
2022-09-15T02:16:23.619Z,55.44
2022-09-15T02:19:11.960Z,55.33
2022-09-15T02:21:53.800Z,55.52
2022-09-15T02:24:26.719Z,55.38
2022-09-15T02:26:55.206Z,55.43
2022-09-15T02:29:24.261Z,55.28
2022-09-15T02:31:53.351Z,55.36
2022-09-15T02:34:26.180Z,55.60
2022-09-15T02:36:53.680Z,55.25
2022-09-15T02:39:26.303Z,55.18
2022-09-15T02:41:52.678Z,55.45
2022-09-15T02:44:19.546Z,55.43
2022-09-15T02:46:45.921Z,55.35
2022-09-15T02:49:12.991Z,55.55
2022-09-15T02:51:39.361Z,55.38
2022-09-15T02:54:05.885Z,55.08
2022-09-15T02:56:32.206Z,55.36
2022-09-15T02:58:58.535Z,55.49
2022-09-15T03:01:31.633Z,55.39
2022-09-15T03:03:59.042Z,55.12
2022-09-15T03:06:27.819Z,55.20
2022-09-15T03:08:58.751Z,55.22
2022-09-15T03:11:26.958Z,55.42
2022-09-15T03:13:55.495Z,55.30
2022-09-15T03:16:22.635Z,55.19
2022-09-15T03:18:49.057Z,55.08
2022-09-15T03:21:16.922Z,55.36
2022-09-15T03:23:43.250Z,55.00
2022-09-15T03:26:10.838Z,55.38
2022-09-15T03:28:38.955Z,55.22
2022-09-15T03:31:07.086Z,55.19
2022-09-15T03:33:33.898Z,55.25
2022-09-15T03:36:00.702Z,55.30
2022-09-15T03:38:27.025Z,55.42
2022-09-15T03:41:10.460Z,55.45
2022-09-15T03:43:37.555Z,55.11
2022-09-15T03:46:06.027Z,55.34
2022-09-15T03:48:34.659Z,55.32
2022-09-15T03:51:02.512Z,55.13
2022-09-15T03:53:31.948Z,54.97
2022-09-15T03:56:09.446Z,55.33
2022-09-15T03:58:35.758Z,54.88
2022-09-15T04:01:02.134Z,54.95
2022-09-15T04:03:28.440Z,55.32
2022-09-15T04:05:54.747Z,55.25
2022-09-15T04:08:21.091Z,54.89
2022-09-15T04:10:48.135Z,54.97
2022-09-15T04:13:14.483Z,55.04
2022-09-15T04:15:40.820Z,54.89
2022-09-15T04:18:07.147Z,54.95
2022-09-15T04:20:33.505Z,54.90
2022-09-15T04:22:59.831Z,54.91
2022-09-15T04:25:27.801Z,54.96
2022-09-15T04:27:54.139Z,55.20
2022-09-15T04:30:20.564Z,54.80
2022-09-15T04:32:46.925Z,54.92
2022-09-15T04:35:13.284Z,55.19
2022-09-15T04:37:39.736Z,55.04
2022-09-15T04:40:06.641Z,55.03
2022-09-15T04:42:33.018Z,54.81
2022-09-15T04:44:59.321Z,54.56
2022-09-15T04:47:25.636Z,54.66
2022-09-15T04:49:51.968Z,54.91
2022-09-15T04:52:18.325Z,54.58
2022-09-15T04:54:44.701Z,54.90
2022-09-15T04:57:11.844Z,54.87
2022-09-15T04:59:38.166Z,54.95
2022-09-15T05:02:04.861Z,54.94
2022-09-15T05:04:31.639Z,54.74
2022-09-15T05:06:57.967Z,54.68
2022-09-15T05:09:25.174Z,54.63
2022-09-15T05:11:51.690Z,54.63
2022-09-15T05:14:18.042Z,54.73
2022-09-15T05:16:44.364Z,54.77
2022-09-15T05:19:11.382Z,54.89
2022-09-15T05:21:38.367Z,54.74
2022-09-15T05:24:04.768Z,54.60
2022-09-15T05:26:31.712Z,54.73
2022-09-15T05:28:58.071Z,54.50
2022-09-15T05:31:27.115Z,54.81
2022-09-15T05:33:54.216Z,54.46
2022-09-15T05:36:24.927Z,54.54
2022-09-15T05:38:53.313Z,54.73
2022-09-15T05:41:20.739Z,54.66
2022-09-15T05:43:48.488Z,54.56
2022-09-15T05:46:15.996Z,54.68
2022-09-15T05:48:42.665Z,54.47
2022-09-15T05:51:09.010Z,54.71
2022-09-15T05:53:36.522Z,54.48
2022-09-15T05:56:05.718Z,54.44
2022-09-15T05:58:32.603Z,54.79
2022-09-15T06:01:05.488Z,55.16
2022-09-15T06:03:31.897Z,54.79
2022-09-15T06:05:59.451Z,55.22
2022-09-15T06:08:29.576Z,54.85
2022-09-15T06:11:01.003Z,55.26
2022-09-15T06:13:27.336Z,55.15
2022-09-15T06:15:53.642Z,54.92
2022-09-15T06:18:19.991Z,55.08
2022-09-15T06:20:46.288Z,54.97
2022-09-15T06:23:12.578Z,55.21
2022-09-15T06:25:38.873Z,55.21
2022-09-15T06:28:05.180Z,55.09
2022-09-15T06:30:31.475Z,55.63
2022-09-15T06:32:57.769Z,55.37
2022-09-15T06:35:24.080Z,55.18
2022-09-15T06:37:50.407Z,55.45
2022-09-15T06:40:17.472Z,55.81
2022-09-15T06:42:44.067Z,55.44
2022-09-15T06:45:10.521Z,55.89
2022-09-15T06:47:36.837Z,56.06
2022-09-15T06:50:04.415Z,55.81
2022-09-15T06:52:30.720Z,56.21
2022-09-15T06:54:57.250Z,55.94
2022-09-15T06:57:23.596Z,56.13
2022-09-15T06:59:49.905Z,56.05
2022-09-15T07:02:16.330Z,56.13
2022-09-15T07:04:42.769Z,56.16
2022-09-15T07:07:09.200Z,55.89
2022-09-15T07:09:36.009Z,56.08
2022-09-15T07:12:04.560Z,56.16
2022-09-15T07:14:30.893Z,56.04
2022-09-15T07:16:57.371Z,56.13
2022-09-15T07:19:23.714Z,56.35
2022-09-15T07:21:50.440Z,56.06
2022-09-15T07:24:16.824Z,56.21
2022-09-15T07:26:43.131Z,56.14
2022-09-15T07:29:09.631Z,56.35
2022-09-15T07:31:37.794Z,56.20
2022-09-15T07:34:05.354Z,56.26
2022-09-15T07:36:31.905Z,56.14
2022-09-15T07:38:58.484Z,56.48
2022-09-15T07:41:28.204Z,56.47
2022-09-15T07:43:56.674Z,56.32
2022-09-15T07:46:25.054Z,56.27
2022-09-15T07:48:56.154Z,56.19
2022-09-15T07:51:23.146Z,55.83
2022-09-15T07:53:49.749Z,55.79
2022-09-15T07:56:20.268Z,55.86
2022-09-15T07:58:47.458Z,55.59
2022-09-15T08:01:14.966Z,55.63
2022-09-15T08:03:45.230Z,55.58
2022-09-15T08:06:13.048Z,55.49
2022-09-15T08:08:40.513Z,55.37
2022-09-15T08:11:08.448Z,55.50
2022-09-15T08:13:34.947Z,55.27
2022-09-15T08:16:09.159Z,55.52
2022-09-15T08:18:36.299Z,55.30
2022-09-15T08:21:14.861Z,55.39
2022-09-15T08:23:41.240Z,55.30
2022-09-15T08:26:13.615Z,55.35
2022-09-15T08:28:40.587Z,55.30
2022-09-15T08:31:11.853Z,55.24
2022-09-15T08:33:43.185Z,55.04
2022-09-15T08:36:12.006Z,54.86
2022-09-15T08:38:44.287Z,54.88
2022-09-15T08:41:22.122Z,54.79
2022-09-15T08:43:58.598Z,55.04
2022-09-15T08:46:36.429Z,54.78
2022-09-15T08:49:40.851Z,54.80
2022-09-15T08:52:16.079Z,54.70
2022-09-15T08:54:42.416Z,54.82
2022-09-15T08:57:13.955Z,54.90
2022-09-15T08:59:40.508Z,54.63
2022-09-15T09:02:12.729Z,54.42
2022-09-15T09:05:03.880Z,54.38
2022-09-15T09:08:12.119Z,54.24
2022-09-15T09:10:53.195Z,54.55
2022-09-15T09:13:37.618Z,54.26
2022-09-15T09:16:31.624Z,54.33
2022-09-15T09:19:50.009Z,54.16
2022-09-15T09:22:19.929Z,54.36
2022-09-15T09:24:49.929Z,54.42
2022-09-15T09:27:22.088Z,54.71
2022-09-15T09:29:51.863Z,54.73
2022-09-15T09:32:24.378Z,54.78
2022-09-15T09:35:09.429Z,54.89
2022-09-15T09:37:36.024Z,54.70
2022-09-15T09:40:02.488Z,54.62
2022-09-15T09:42:31.871Z,55.02
2022-09-15T09:44:58.316Z,54.91
2022-09-15T09:47:32.668Z,55.11
2022-09-15T09:49:59.787Z,54.92
2022-09-15T09:52:35.376Z,54.84
2022-09-15T09:55:21.624Z,55.08
2022-09-15T09:57:47.960Z,54.90
2022-09-15T10:00:36.099Z,54.79
2022-09-15T10:03:18.959Z,54.96
2022-09-15T10:06:00.074Z,54.63
2022-09-15T10:08:26.420Z,54.80
2022-09-15T10:10:54.319Z,55.03
2022-09-15T10:13:21.890Z,54.69
2022-09-15T10:15:54.341Z,54.64
2022-09-15T10:18:49.880Z,54.78
2022-09-15T10:21:24.016Z,54.70
2022-09-15T10:23:50.307Z,54.83
2022-09-15T10:26:16.563Z,55.08
2022-09-15T10:28:44.810Z,55.01
2022-09-15T10:31:25.332Z,54.87
2022-09-15T10:33:52.564Z,54.94
2022-09-15T10:36:23.973Z,54.92
2022-09-15T10:39:06.595Z,55.14
2022-09-15T10:41:39.361Z,55.35
2022-09-15T10:44:29.907Z,55.24
2022-09-15T10:47:28.467Z,55.11
2022-09-15T10:50:03.648Z,55.11
2022-09-15T10:52:58.290Z,55.36
2022-09-15T10:55:52.798Z,55.34
2022-09-15T10:58:43.642Z,55.15
2022-09-15T11:01:30.411Z,55.32
2022-09-15T11:04:40.463Z,55.55
2022-09-15T11:07:31.685Z,55.19
2022-09-15T11:10:13.253Z,55.33
2022-09-15T11:13:05.746Z,55.33
2022-09-15T11:16:01.412Z,55.22
2022-09-15T11:18:41.736Z,55.31
2022-09-15T11:21:24.284Z,54.75
2022-09-15T11:24:08.224Z,54.55
2022-09-15T11:26:46.970Z,54.75
2022-09-15T11:29:29.321Z,54.80
2022-09-15T11:32:04.061Z,54.91
2022-09-15T11:34:39.368Z,54.79
2022-09-15T11:37:23.291Z,54.53
2022-09-15T11:40:06.694Z,54.97
2022-09-15T11:42:52.976Z,54.77
2022-09-15T11:45:25.506Z,54.80
2022-09-15T11:47:59.251Z,54.99
2022-09-15T11:50:34.219Z,54.60
2022-09-15T11:53:03.764Z,54.63
2022-09-15T11:55:30.035Z,54.64
2022-09-15T11:58:21.060Z,55.18
2022-09-15T12:00:51.420Z,54.90
2022-09-15T12:03:50.519Z,54.77
2022-09-15T12:06:45.715Z,54.64
2022-09-15T12:09:15.831Z,54.20
2022-09-15T12:11:46.232Z,54.05
2022-09-15T12:14:16.890Z,53.76
2022-09-15T12:16:44.475Z,53.55
2022-09-15T12:19:49.709Z,53.52
2022-09-15T12:22:40.897Z,53.37
2022-09-15T12:25:19.784Z,53.37
2022-09-15T12:28:24.080Z,53.16
2022-09-15T12:31:30.101Z,53.08
2022-09-15T12:34:35.461Z,53.18
2022-09-15T12:37:13.576Z,52.75
2022-09-15T12:39:42.331Z,52.71
2022-09-15T12:42:24.933Z,52.82
2022-09-15T12:45:25.820Z,52.59
2022-09-15T12:48:12.003Z,52.69
2022-09-15T12:50:42.511Z,52.37
2022-09-15T12:53:26.424Z,52.55
2022-09-15T12:56:00.613Z,53.00
2022-09-15T12:58:39.491Z,53.02
2022-09-15T13:01:18.623Z,53.04
2022-09-15T13:03:45.296Z,52.84
2022-09-15T13:06:16.827Z,52.85
2022-09-15T13:08:53.663Z,53.27
2022-09-15T13:11:38.437Z,52.70
2022-09-15T13:14:07.795Z,52.30
2022-09-15T13:16:40.404Z,52.86
2022-09-15T13:19:30.952Z,52.67
2022-09-15T13:22:06.337Z,52.82
2022-09-15T13:25:03.623Z,52.71
2022-09-15T13:27:40.612Z,52.53
2022-09-15T13:30:35.118Z,53.20
2022-09-15T13:40:01.478Z,52.81
2022-09-15T13:42:47.076Z,52.58
2022-09-15T13:45:22.660Z,52.94
2022-09-15T13:48:05.726Z,52.94
2022-09-15T13:50:34.199Z,52.72
2022-09-15T13:53:06.132Z,52.65
2022-09-15T13:55:38.518Z,52.40
2022-09-15T14:00:53.415Z,52.72
2022-09-15T14:03:25.779Z,52.45
2022-09-15T14:05:54.128Z,52.48
2022-09-15T14:08:30.203Z,52.55
2022-09-15T14:11:01.468Z,52.84
2022-09-15T14:13:29.394Z,52.76
2022-09-15T14:16:11.898Z,52.86
2022-09-15T14:18:44.804Z,52.90
2022-09-15T14:21:22.009Z,53.10
2022-09-15T14:23:50.752Z,52.00
2022-09-15T14:26:20.923Z,52.04
2022-09-15T14:28:57.910Z,51.92
2022-09-15T14:31:40.408Z,52.45
2022-09-15T14:34:29.852Z,51.98
2022-09-15T14:37:07.165Z,52.45
2022-09-15T14:39:37.269Z,52.21
2022-09-15T14:42:31.059Z,52.55
2022-09-15T14:48:15.922Z,52.63
2022-09-15T14:50:45.212Z,52.67
2022-09-15T14:53:20.580Z,52.36
2022-09-15T14:56:07.059Z,52.47
2022-09-15T14:58:46.169Z,52.61
2022-09-15T15:01:17.101Z,52.43
2022-09-15T15:03:57.594Z,52.36
2022-09-15T15:06:31.672Z,52.44
2022-09-15T15:09:03.318Z,52.39
2022-09-15T15:11:32.791Z,52.83
2022-09-15T15:13:59.692Z,52.65
2022-09-15T15:16:28.984Z,52.67
2022-09-15T15:18:57.023Z,52.72
2022-09-15T15:21:37.056Z,52.88
2022-09-15T15:24:12.146Z,52.78
2022-09-15T15:26:41.363Z,52.93
2022-09-15T15:29:27.690Z,52.79
2022-09-15T15:32:13.860Z,52.59
2022-09-15T15:34:47.469Z,52.93
2022-09-15T15:37:34.186Z,52.91
2022-09-15T15:40:05.175Z,52.64
2022-09-15T15:42:31.839Z,52.53
2022-09-15T15:45:27.587Z,52.85
2022-09-15T15:47:54.008Z,52.46
2022-09-15T15:50:25.560Z,52.78
2022-09-15T15:52:52.842Z,52.84
2022-09-15T15:55:20.522Z,52.54
2022-09-15T15:57:50.179Z,52.39
2022-09-15T16:00:21.391Z,52.53
2022-09-15T16:02:48.890Z,52.25
2022-09-15T16:05:15.411Z,52.49
2022-09-15T16:07:45.056Z,52.55
2022-09-15T16:10:19.730Z,52.24
2022-09-15T16:12:46.041Z,52.44
2022-09-15T16:15:16.612Z,52.73
2022-09-15T16:17:46.688Z,52.11
2022-09-15T16:20:19.576Z,52.55
2022-09-15T16:22:45.970Z,52.89
2022-09-15T16:25:16.862Z,53.39
2022-09-15T16:27:43.215Z,53.22
2022-09-15T16:30:11.965Z,53.54
2022-09-15T16:32:39.609Z,53.71
2022-09-15T16:35:24.544Z,53.54
2022-09-15T16:37:50.908Z,53.98
2022-09-15T16:40:17.836Z,54.44
2022-09-15T16:42:44.309Z,54.49
2022-09-15T16:45:35.134Z,54.81
2022-09-15T16:48:04.694Z,54.67
2022-09-15T16:50:31.255Z,54.74
2022-09-15T16:52:58.302Z,54.58
2022-09-15T16:55:35.719Z,54.71
2022-09-15T16:58:04.118Z,54.61
2022-09-15T17:00:32.695Z,54.72
2022-09-15T17:02:59.335Z,54.37
2022-09-15T17:05:34.526Z,54.51
2022-09-15T17:08:01.218Z,54.07
2022-09-15T17:10:27.816Z,54.48
2022-09-15T17:12:54.289Z,53.81
2022-09-15T17:15:24.551Z,54.06
2022-09-15T17:17:51.403Z,53.85
2022-09-15T17:20:18.834Z,54.30
2022-09-15T17:22:47.200Z,54.33
2022-09-15T17:25:23.677Z,54.30
2022-09-15T17:27:50.707Z,54.42
2022-09-15T17:30:20.516Z,54.07
2022-09-15T17:32:47.323Z,54.13
2022-09-15T17:35:17.176Z,53.93
2022-09-15T17:37:44.719Z,54.47
2022-09-15T17:40:12.784Z,54.28
2022-09-15T17:42:39.486Z,53.63
2022-09-15T17:45:28.301Z,53.56
2022-09-15T17:47:54.673Z,53.44
2022-09-15T17:50:23.210Z,53.50
2022-09-15T17:52:50.306Z,53.58
2022-09-15T17:55:22.947Z,53.24
2022-09-15T17:57:49.970Z,53.55
2022-09-15T18:00:18.357Z,53.52
2022-09-15T18:02:49.378Z,53.52
2022-09-15T18:05:21.930Z,53.25
2022-09-15T18:07:48.637Z,53.40
2022-09-15T18:10:16.400Z,53.21
2022-09-15T18:12:46.834Z,53.13
2022-09-15T18:15:29.917Z,53.50
2022-09-15T18:17:58.607Z,53.18
2022-09-15T18:20:27.761Z,53.25
2022-09-15T18:22:54.646Z,53.46
2022-09-15T18:25:25.395Z,53.63
2022-09-15T18:27:52.051Z,53.51
2022-09-15T18:30:19.825Z,53.64
2022-09-15T18:32:46.722Z,53.51
2022-09-15T18:35:18.353Z,54.02
2022-09-15T18:37:47.213Z,54.09
2022-09-15T18:40:16.256Z,53.97
2022-09-15T18:42:43.373Z,53.84
2022-09-15T18:45:12.039Z,53.92
2022-09-15T18:47:38.762Z,53.92
2022-09-15T18:50:06.480Z,54.37
2022-09-15T18:52:37.987Z,54.08
2022-09-15T18:55:05.951Z,54.23
2022-09-15T18:57:37.140Z,54.15
2022-09-15T19:00:10.365Z,53.88
2022-09-15T19:02:36.804Z,54.34
2022-09-15T19:05:03.538Z,54.04
2022-09-15T19:07:29.826Z,54.55
2022-09-15T19:09:56.758Z,54.35
2022-09-15T19:12:23.546Z,54.54
2022-09-15T19:14:50.041Z,54.40
2022-09-15T19:17:16.623Z,54.25
2022-09-15T19:19:43.397Z,54.70
2022-09-15T19:22:09.928Z,54.31
2022-09-15T19:24:36.744Z,54.48
2022-09-15T19:27:04.790Z,54.00
2022-09-15T19:29:34.829Z,54.12
2022-09-15T19:32:03.654Z,54.12
2022-09-15T19:34:30.357Z,54.04
2022-09-15T19:36:56.667Z,53.89
2022-09-15T19:39:23.067Z,54.10
2022-09-15T19:41:49.549Z,54.00
2022-09-15T19:44:16.132Z,53.95
2022-09-15T19:46:42.692Z,54.27
2022-09-15T19:49:12.520Z,54.07
2022-09-15T19:51:39.360Z,54.02
2022-09-15T19:54:06.770Z,53.85
2022-09-15T19:56:34.131Z,54.10
2022-09-15T19:59:00.899Z,53.96
2022-09-15T20:01:29.192Z,53.98
2022-09-15T20:03:57.168Z,53.98
2022-09-15T20:06:27.730Z,53.74
2022-09-15T20:08:58.140Z,54.00
2022-09-15T20:11:26.207Z,54.00
2022-09-15T20:13:54.119Z,53.69
2022-09-15T20:16:22.032Z,53.86
2022-09-15T20:18:50.332Z,54.04
2022-09-15T20:21:32.576Z,53.87
2022-09-15T20:24:07.398Z,53.90
2022-09-15T20:26:33.727Z,53.83
2022-09-15T20:29:04.049Z,53.87
2022-09-15T20:31:32.940Z,53.69
2022-09-15T20:34:00.830Z,54.04
2022-09-15T20:36:33.305Z,54.05
2022-09-15T20:39:01.163Z,53.83
2022-09-15T20:41:28.392Z,53.91
2022-09-15T20:43:55.518Z,53.58
2022-09-15T20:46:23.361Z,53.42
2022-09-15T20:48:51.344Z,53.84
2022-09-15T20:51:21.412Z,53.72
2022-09-15T20:53:49.667Z,53.47
2022-09-15T20:56:17.296Z,53.52
2022-09-15T20:58:43.684Z,53.92
2022-09-15T21:01:14.922Z,53.91
2022-09-15T21:03:43.071Z,53.76
2022-09-15T21:06:15.276Z,53.78
2022-09-15T21:08:42.015Z,53.59
2022-09-15T21:11:12.560Z,53.61
2022-09-15T21:13:41.267Z,53.48
2022-09-15T21:16:10.627Z,53.29
2022-09-15T21:18:39.158Z,53.75
2022-09-15T21:21:07.958Z,53.71
2022-09-15T21:23:42.749Z,53.52
2022-09-15T21:26:12.195Z,53.28
2022-09-15T21:28:38.779Z,53.42
2022-09-15T21:31:08.012Z,53.56
2022-09-15T21:33:35.522Z,53.54
2022-09-15T21:36:07.339Z,53.53
2022-09-15T21:38:34.485Z,53.28
2022-09-15T21:41:00.843Z,53.41
2022-09-15T21:43:36.654Z,53.22
2022-09-15T21:46:05.442Z,53.47
2022-09-15T21:48:33.424Z,53.12
2022-09-15T21:51:00.241Z,53.16
2022-09-15T21:53:27.301Z,52.99
2022-09-15T21:55:54.294Z,53.14
2022-09-15T21:58:26.117Z,53.17
2022-09-15T22:00:52.773Z,52.95
2022-09-15T22:03:19.224Z,53.12
2022-09-15T22:05:47.174Z,53.25
2022-09-15T22:08:16.134Z,53.24
2022-09-15T22:10:43.629Z,53.23
2022-09-15T22:13:11.861Z,53.35
2022-09-15T22:15:38.205Z,53.04
2022-09-15T22:18:05.320Z,53.23
2022-09-15T22:20:31.999Z,53.07
2022-09-15T22:23:01.578Z,53.21
2022-09-15T22:25:28.876Z,53.33
2022-09-15T22:27:55.282Z,52.97
2022-09-15T22:30:21.584Z,52.89
2022-09-15T22:32:47.907Z,53.26
2022-09-15T22:35:14.267Z,53.01
2022-09-15T22:37:40.679Z,53.07
2022-09-15T22:40:07.606Z,52.86
2022-09-15T22:42:34.009Z,53.05
2022-09-15T22:45:00.402Z,52.78
2022-09-15T22:47:26.783Z,52.91
2022-09-15T22:49:53.114Z,53.08
2022-09-15T22:52:21.048Z,53.03
2022-09-15T22:54:47.362Z,52.85
2022-09-15T22:57:13.694Z,53.14
2022-09-15T22:59:40.120Z,52.89
2022-09-15T23:02:06.473Z,52.89
2022-09-15T23:04:32.830Z,52.85
2022-09-15T23:06:59.120Z,52.76
2022-09-15T23:09:25.489Z,52.98
2022-09-15T23:11:51.800Z,53.06
2022-09-15T23:14:18.117Z,53.07
2022-09-15T23:16:45.050Z,52.63
2022-09-15T23:19:13.276Z,52.71
2022-09-15T23:21:39.725Z,52.83
2022-09-15T23:24:06.391Z,52.78
2022-09-15T23:26:32.893Z,52.46
2022-09-15T23:28:59.272Z,52.69
2022-09-15T23:31:25.730Z,52.57
2022-09-15T23:33:52.110Z,52.67
2022-09-15T23:36:19.434Z,52.51
2022-09-15T23:38:46.764Z,52.54
2022-09-15T23:41:14.092Z,52.77
2022-09-15T23:43:40.686Z,52.64
2022-09-15T23:46:07.204Z,52.59
2022-09-15T23:48:33.985Z,52.43
2022-09-15T23:51:00.717Z,52.85
2022-09-15T23:53:27.293Z,52.77
2022-09-15T23:55:53.778Z,52.62
2022-09-15T23:58:20.119Z,52.75
